Misratah, Libya
Current Conditions -  °F | °C
As of 11:50 AM on Saturday 22 Nov 2014 (Local Time) from HLLM Reporting Station
Clear Clear  
Wind Chill: 72°   Ceiling: Unl
Heat Index: 72°   Visibility: 6mi
Dew Point: 39°   Wind: 9mph
Humidity: 31%   Direction: 240°WSW
Pressure: 30.24"   Gusts: NA
Location:  32.38°N, 15.09°E
Report Text: HLLM 220850Z 24008KT CAVOK 22/04 Q1024
Loading
Personal Weather Stations






























Interactive Weather Map New forecast layout! Learn more

10-Day Weather Forecast

Advertisements
Track Severe Weather on mobile